Skip Navigation Links
NOAA logo - Click to go to the NOAA homepage
NOAA's National Weather Service
Alaska Aviation Weather Unit
  NWS logo - Click to go to the NWS homepage
Left Navbar Graphic     17 AKDT = 01 GMT

   
NOAA is celebrating 200 years of science, service, and stewardship. Visit the NOAA 200th celebration Web site to learn more.
USA.gov is the U.S. Government's official Web portal to all Federal, state and local government Web resources and services.
Facebook
NWS on Facebook

Important Change Regarding the AAWU Web Presence

 

Over the last several months, the AAWU has been working to navigate its webpages to a nationally supported server. Security, as well as other needs, have necessitated the change.  In the process, we have made an effort to enhance the functionality of our website, as well as some of our products. As of June 27, 2017, aawu.arh.noaa.gov will be discontinued. The new AAWU web address is weather.gov/aawu. It is now live and will run in-parallel with the old site until it is discontinued. Please send any feedback or questions regarding the new webpages to nws.ar.aawu.webauthors@noaa.gov.  Thank you for your patience during this time of transition.
AAWU Home :: Display TAF Add Bookmark
TAF CYZF 252338Z 2600/2624 17012KT P6SM SKC
     FM260400 14010KT P6SM FEW200
     FM261500 14015G25KT P6SM SCT200 RMK
      NXT FCST BY 260600Z=

METAR CYZF 251900Z 17015KT 15SM SKC 17/05 A3007 RMK SLP192 DENSITY ALT 1000FT= METAR CYZF 252000Z 18013KT 15SM BKN210 20/06 A3005 RMK CS6 SLP185 DENSITY ALT 1300FT= METAR CYZF 252100Z 16015KT 15SM BKN220 19/05 A3004 RMK CS5 FU SLP182 DENSITY ALT 1200FT= METAR CYZF 252200Z 15011KT 15SM SCT210 21/06 A3002 RMK CI3 FU SLP175 DENSITY ALT 1500FT= METAR CYZF 252300Z 17011KT 15SM FEW210 22/05 A3000 RMK CI2 SLP167 DENSITY ALT 1600FT= METAR CYZF 260000Z 16012KT 15SM SCT210 23/03 A2998 RMK CI3 SLP158 DENSITY ALT 1700FT= METAR CYZF 260100Z 16009KT 15SM SCT210 23/04 A2996 RMK CI4 SLP152 DENSITY ALT 1800FT=
 Alaska TAF Map

NOAA's National Weather Service
Alaska Aviation Weather Unit
6930 Sand Lake Road
Anchorage, AK 99502-1845
Disclaimer
Credits
Glossary
Privacy Policy
About Us
Career Opportunities
Contact AAWU Internet Services Site last modified: April, 17th 2012